createdAt,value
2022-09-18T00:04:27.705Z,6.50
2022-09-18T00:09:30.810Z,5.20
2022-09-18T00:14:34.016Z,5.80
2022-09-18T00:19:36.818Z,6.60
2022-09-18T00:24:39.827Z,6.40
2022-09-18T00:29:42.832Z,6.50
2022-09-18T00:34:45.632Z,6.10
2022-09-18T00:39:48.537Z,6.70
2022-09-18T00:44:51.543Z,6.50
2022-09-18T00:50:10.121Z,6.40
2022-09-18T00:55:14.554Z,6.70
2022-09-18T01:00:17.463Z,6.90
2022-09-18T01:05:28.762Z,6.80
2022-09-18T01:10:57.030Z,7.10
2022-09-18T01:16:19.476Z,6.60
2022-09-18T01:21:59.730Z,6.30
2022-09-18T01:27:09.673Z,8.10
2022-09-18T01:32:18.620Z,7.70
2022-09-18T01:37:38.727Z,6.40
2022-09-18T01:42:44.703Z,7.80
2022-09-18T01:48:08.741Z,7.90
2022-09-18T01:53:24.708Z,6.00
2022-09-18T01:58:29.867Z,8.10
2022-09-18T02:03:38.793Z,8.40
2022-09-18T02:08:48.165Z,7.30
2022-09-18T02:13:56.988Z,7.80
2022-09-18T02:19:08.355Z,6.40
2022-09-18T02:24:14.283Z,6.80
2022-09-18T02:29:19.134Z,7.20
2022-09-18T02:34:22.242Z,7.20
2022-09-18T02:39:52.542Z,6.80
2022-09-18T02:45:15.256Z,6.90
2022-09-18T02:50:59.122Z,7.30
2022-09-18T02:56:04.587Z,6.30
2022-09-18T03:01:08.996Z,7.20
2022-09-18T03:06:12.105Z,7.20
2022-09-18T03:11:15.039Z,7.50
2022-09-18T03:16:20.710Z,7.60
2022-09-18T03:21:24.391Z,6.80
2022-09-18T03:26:27.232Z,6.90
2022-09-18T03:31:30.167Z,7.10
2022-09-18T03:36:33.556Z,7.50
2022-09-18T03:41:36.466Z,7.50
2022-09-18T03:46:39.462Z,6.70
2022-09-18T03:51:42.671Z,7.10
2022-09-18T03:56:45.680Z,6.90
2022-09-18T04:01:48.943Z,6.60
2022-09-18T04:06:51.793Z,6.30
2022-09-18T04:11:57.178Z,6.40
2022-09-18T04:17:00.640Z,5.30
2022-09-18T04:22:04.704Z,6.90
2022-09-18T04:27:07.813Z,5.40
2022-09-18T04:32:10.921Z,5.60
2022-09-18T04:37:14.136Z,5.10
2022-09-18T04:42:17.154Z,6.30
2022-09-18T04:47:20.043Z,6.40
2022-09-18T04:52:23.361Z,6.10
2022-09-18T04:57:26.361Z,5.60
2022-09-18T05:02:29.306Z,6.40
2022-09-18T05:07:32.372Z,5.10
2022-09-18T05:12:35.174Z,6.20
2022-09-18T05:17:40.370Z,6.10
2022-09-18T05:22:47.230Z,5.20
2022-09-18T05:27:57.608Z,5.60
2022-09-18T05:33:02.766Z,6.10
2022-09-18T05:38:06.590Z,5.60
2022-09-18T05:43:09.905Z,5.60
2022-09-18T05:48:13.630Z,5.00
2022-09-18T05:53:19.094Z,4.90
2022-09-18T05:58:22.011Z,4.60
2022-09-18T06:03:25.095Z,4.60
2022-09-18T06:08:28.109Z,4.80
2022-09-18T06:13:31.013Z,5.10
2022-09-18T06:18:33.814Z,4.60
2022-09-18T06:23:43.991Z,4.70
2022-09-18T06:28:47.200Z,5.00
2022-09-18T06:33:50.106Z,4.70
2022-09-18T06:38:53.008Z,5.10
2022-09-18T06:43:56.225Z,4.50
2022-09-18T06:48:59.540Z,4.80
2022-09-18T06:54:05.444Z,5.10
2022-09-18T06:59:11.283Z,4.70
2022-09-18T07:04:14.772Z,4.60
2022-09-18T07:09:20.262Z,5.20
2022-09-18T07:14:23.168Z,6.00
2022-09-18T07:19:26.069Z,5.80
2022-09-18T07:24:30.002Z,6.70
2022-09-18T07:29:33.007Z,5.50
2022-09-18T07:34:36.115Z,5.30
2022-09-18T07:39:39.122Z,5.50
2022-09-18T07:44:42.036Z,4.70
2022-09-18T07:49:44.950Z,5.60
2022-09-18T07:54:49.368Z,5.50
2022-09-18T07:59:52.476Z,5.70
2022-09-18T08:04:55.590Z,5.30
2022-09-18T08:09:58.861Z,5.40
2022-09-18T08:15:02.056Z,5.20
2022-09-18T08:20:09.242Z,4.60
2022-09-18T08:25:12.219Z,4.60
2022-09-18T08:30:18.332Z,5.20
2022-09-18T08:35:23.874Z,5.30
2022-09-18T08:40:43.871Z,5.10
2022-09-18T08:45:56.476Z,5.60
2022-09-18T08:51:23.332Z,5.40
2022-09-18T08:56:27.555Z,6.20
2022-09-18T09:01:46.355Z,5.70
2022-09-18T09:06:55.323Z,5.70
2022-09-18T09:12:50.247Z,6.00
2022-09-18T09:18:18.695Z,6.50
2022-09-18T09:23:52.989Z,7.00
2022-09-18T09:29:01.444Z,6.90
2022-09-18T09:34:16.985Z,6.70
2022-09-18T09:39:41.177Z,6.50
2022-09-18T09:44:53.775Z,6.70
2022-09-18T09:50:10.823Z,6.70
2022-09-18T09:55:13.595Z,6.30
2022-09-18T10:00:19.251Z,6.70
2022-09-18T10:05:50.353Z,7.00
2022-09-18T10:10:59.671Z,7.90
2022-09-18T10:16:10.659Z,8.00
2022-09-18T10:21:22.415Z,7.70
2022-09-18T10:26:52.898Z,7.80
2022-09-18T10:31:59.220Z,6.40
2022-09-18T10:37:02.635Z,7.40
2022-09-18T10:42:06.759Z,6.40
2022-09-18T10:47:12.905Z,6.60
2022-09-18T10:52:32.446Z,7.30
2022-09-18T10:57:59.774Z,7.50
2022-09-18T11:03:24.217Z,7.50
2022-09-18T11:08:31.295Z,7.20
2022-09-18T11:13:41.506Z,6.50
2022-09-18T11:18:47.669Z,7.80
2022-09-18T11:24:05.518Z,7.30
2022-09-18T11:29:25.766Z,7.70
2022-09-18T11:34:37.212Z,6.70
2022-09-18T11:39:45.193Z,7.10
2022-09-18T11:44:48.390Z,7.20
2022-09-18T11:50:16.456Z,7.60
2022-09-18T11:55:26.552Z,7.20
2022-09-18T12:00:45.844Z,7.30
2022-09-18T12:06:01.256Z,7.00
2022-09-18T12:11:13.459Z,7.30
2022-09-18T12:16:36.901Z,6.90
2022-09-18T12:22:22.229Z,7.30
2022-09-18T12:28:02.405Z,6.60
2022-09-18T12:33:30.207Z,6.20
2022-09-18T12:39:12.808Z,7.20
2022-09-18T12:44:16.375Z,6.10
2022-09-18T12:49:19.498Z,6.10
2022-09-18T12:54:51.479Z,6.00
2022-09-18T13:00:06.458Z,6.20
2022-09-18T13:05:15.907Z,7.20
2022-09-18T13:10:21.459Z,9.20
2022-09-18T13:15:36.121Z,9.40
2022-09-18T13:20:45.703Z,10.00
2022-09-18T13:25:51.806Z,9.60
2022-09-18T13:31:28.639Z,8.20
2022-09-18T13:36:37.824Z,9.40
2022-09-18T13:41:44.103Z,9.50
2022-09-18T13:46:48.553Z,8.80
2022-09-18T13:51:51.544Z,9.60
2022-09-18T13:57:04.074Z,7.80
2022-09-18T14:02:24.008Z,8.00
2022-09-18T14:07:26.893Z,6.40
2022-09-18T14:12:34.078Z,7.40
2022-09-18T14:17:38.312Z,6.80
2022-09-18T14:22:41.538Z,6.70
2022-09-18T14:27:58.036Z,6.90
2022-09-18T14:33:09.757Z,6.70
2022-09-18T14:38:32.116Z,7.30
2022-09-18T14:43:40.344Z,6.30
2022-09-18T14:48:43.562Z,6.90
2022-09-18T14:53:55.870Z,7.50
2022-09-18T14:59:01.541Z,7.10
2022-09-18T15:04:12.928Z,6.20
2022-09-18T15:09:26.827Z,6.60
2022-09-18T15:14:41.581Z,6.00
2022-09-18T15:20:04.012Z,5.80
2022-09-18T15:25:14.480Z,5.30
2022-09-18T15:35:28.528Z,8.60
2022-09-18T15:40:37.954Z,10.30
2022-09-18T15:46:02.384Z,6.00
2022-09-18T15:51:17.454Z,5.20
2022-09-18T15:56:21.324Z,5.40
2022-09-18T16:01:29.244Z,5.40
2022-09-18T16:06:36.798Z,5.70
2022-09-18T16:11:42.947Z,5.20
2022-09-18T16:16:46.282Z,5.70
2022-09-18T16:21:49.192Z,10.60
2022-09-18T16:26:52.276Z,9.40
2022-09-18T16:31:56.365Z,10.20
2022-09-18T16:37:00.252Z,7.70
2022-09-18T16:42:18.627Z,10.70
2022-09-18T16:47:21.522Z,7.00
2022-09-18T16:52:24.429Z,6.10
2022-09-18T16:57:29.534Z,5.80
2022-09-18T17:02:33.652Z,4.20
2022-09-18T17:07:37.113Z,3.70
2022-09-18T17:12:42.173Z,2.10
2022-09-18T17:17:45.831Z,3.90
2022-09-18T17:22:50.029Z,3.00
2022-09-18T17:27:53.255Z,5.30
2022-09-18T17:32:56.138Z,4.20
2022-09-18T17:37:59.062Z,3.50
2022-09-18T17:43:01.878Z,3.80
2022-09-18T17:48:05.795Z,2.80
2022-09-18T17:53:10.027Z,3.50
2022-09-18T17:58:13.257Z,5.70
2022-09-18T18:03:16.657Z,5.40
2022-09-18T18:08:22.329Z,4.30
2022-09-18T18:13:25.434Z,2.80
2022-09-18T18:18:28.338Z,2.20
2022-09-18T18:23:31.619Z,2.50
2022-09-18T18:28:36.542Z,3.90
2022-09-18T18:33:42.680Z,2.60
2022-09-18T18:38:55.285Z,1.90
2022-09-18T18:44:02.001Z,1.60
2022-09-18T18:49:09.122Z,1.60
2022-09-18T18:54:12.982Z,1.40
2022-09-18T18:59:19.048Z,2.50
2022-09-18T19:04:21.915Z,2.40
2022-09-18T19:09:26.558Z,1.40
2022-09-18T19:14:32.887Z,1.60
2022-09-18T19:19:35.853Z,1.50
2022-09-18T19:24:39.686Z,1.60
2022-09-18T19:29:43.790Z,2.00
2022-09-18T19:34:46.711Z,2.00
2022-09-18T19:39:50.539Z,2.50
2022-09-18T19:45:00.582Z,2.70
2022-09-18T19:50:06.082Z,2.40
2022-09-18T19:55:15.857Z,2.40
2022-09-18T20:00:18.956Z,2.60
2022-09-18T20:05:21.848Z,2.50
2022-09-18T20:10:24.964Z,2.80
2022-09-18T20:15:28.582Z,2.30
2022-09-18T20:20:31.794Z,2.50
2022-09-18T20:25:35.721Z,2.70
2022-09-18T20:30:38.944Z,2.20
2022-09-18T20:35:41.842Z,2.60
2022-09-18T20:40:45.477Z,2.40
2022-09-18T20:46:05.372Z,2.30
2022-09-18T20:51:10.932Z,2.20
2022-09-18T20:56:15.862Z,2.10
2022-09-18T21:01:22.065Z,2.20
2022-09-18T21:06:28.938Z,1.50
2022-09-18T21:11:35.244Z,1.50
2022-09-18T21:16:46.142Z,2.00
2022-09-18T21:21:49.144Z,1.60
2022-09-18T21:26:52.151Z,1.80
2022-09-18T21:31:59.212Z,1.80
2022-09-18T21:37:06.065Z,1.90
2022-09-18T21:42:09.738Z,1.80
2022-09-18T21:47:13.082Z,1.50
2022-09-18T21:52:17.014Z,1.40
2022-09-18T21:57:19.917Z,1.70
2022-09-18T22:02:22.860Z,2.20
2022-09-18T22:07:25.825Z,1.80
2022-09-18T22:12:28.586Z,1.90
2022-09-18T22:17:32.804Z,1.90
2022-09-18T22:22:36.074Z,1.90
2022-09-18T22:27:38.978Z,2.00
2022-09-18T22:32:41.886Z,1.90
2022-09-18T22:37:44.683Z,1.90
2022-09-18T22:42:47.607Z,2.00
2022-09-18T22:47:53.358Z,2.00
2022-09-18T22:52:56.160Z,2.20
2022-09-18T22:57:59.064Z,1.60
2022-09-18T23:03:02.582Z,2.20
2022-09-18T23:08:05.386Z,1.70
2022-09-18T23:13:09.618Z,2.00
2022-09-18T23:18:12.422Z,2.00
2022-09-18T23:23:15.224Z,2.00
2022-09-18T23:28:18.132Z,2.00
2022-09-18T23:33:20.927Z,2.30
2022-09-18T23:38:23.730Z,1.60
2022-09-18T23:43:26.638Z,1.70
2022-09-18T23:48:29.850Z,1.70
2022-09-18T23:53:37.924Z,2.20
2022-09-18T23:58:42.040Z,2.10
